Time;durP1;ratioP1;P1;durP2;ratioP2;P2;SDS_P1;SDS_P2;PMS_P1;PMS_P2;Temp;Humidity;BMP_temperature;BMP_pressure;BME280_temperature;BME280_humidity;BME280_pressure;Samples;Min_cycle;Max_cycle;Signal;HPM_P1;HPM_P2
2021/01/06 00:00:41;;;;;;;29.25;26.67;;;;;;;7.04;64.76;101981.84;5002316;28;20080;-85
2021/01/06 00:03:13;;;;;;;22.60;19.65;;;;;;;7.26;63.71;101963.59;5002772;28;20454;-83
2021/01/06 00:05:39;;;;;;;23.17;20.85;;;;;;;7.27;64.21;101968.84;5000557;28;20077;-85
2021/01/06 00:08:05;;;;;;;24.50;21.23;;;;;;;7.26;64.09;101975.28;4987823;28;20065;-85
2021/01/06 00:10:30;;;;;;;29.45;26.67;;;;;;;7.26;64.22;101975.28;5003588;28;20037;-85
2021/01/06 00:12:56;;;;;;;25.33;22.90;;;;;;;7.29;64.03;101976.81;5003955;28;20515;-84
2021/01/06 00:15:29;;;;;;;23.05;20.88;;;;;;;6.99;64.88;101984.16;5008317;28;20101;-87
2021/01/06 00:17:54;;;;;;;25.48;23.10;;;;;;;7.22;64.49;101973.03;5025839;28;20022;-83
2021/01/06 00:20:22;;;;;;;26.23;23.75;;;;;;;7.35;64.07;101984.34;5008160;28;20366;-84
2021/01/06 00:22:47;;;;;;;31.00;28.10;;;;;;;7.03;64.82;101982.88;5009369;28;20034;-83
2021/01/06 00:25:19;;;;;;;32.85;30.08;;;;;;;6.99;64.40;101957.09;5009511;28;20076;-83
2021/01/06 00:27:45;;;;;;;25.85;23.13;;;;;;;7.20;63.89;101967.75;5008586;28;20038;-87
2021/01/06 00:30:30;;;;;;;26.42;23.95;;;;;;;7.28;63.63;101973.28;4991185;28;20061;-86
2021/01/06 00:32:55;;;;;;;32.10;29.00;;;;;;;7.16;64.47;101985.25;5008951;28;20661;-87
2021/01/06 00:35:24;;;;;;;25.52;22.98;;;;;;;7.17;64.47;101977.00;5006946;28;20037;-86
2021/01/06 00:37:50;;;;;;;23.17;21.08;;;;;;;7.30;63.96;101978.53;5008908;28;20396;-83
2021/01/06 00:40:18;;;;;;;28.88;25.92;;;;;;;6.90;64.82;101985.88;5010815;28;20029;-82
2021/01/06 00:42:43;;;;;;;26.75;24.23;;;;;;;7.04;64.13;101964.78;5008849;28;20038;-85
2021/01/06 00:45:14;;;;;;;25.00;22.73;;;;;;;6.82;64.77;101991.16;5006903;28;20034;-83
2021/01/06 00:47:41;;;;;;;27.15;24.23;;;;;;;7.24;63.81;101979.13;5008479;28;20034;-85
2021/01/06 00:50:08;;;;;;;21.08;18.83;;;;;;;7.08;63.98;101974.31;5008482;28;20057;-82
2021/01/06 00:52:35;;;;;;;25.60;23.05;;;;;;;7.08;64.04;101969.75;5009834;28;20041;-84
2021/01/06 00:55:02;;;;;;;26.98;24.30;;;;;;;7.36;63.33;101983.38;5007262;28;20472;-84
2021/01/06 00:57:27;;;;;;;23.10;18.88;;;;;;;6.91;64.21;101975.91;5010732;28;20680;-83
2021/01/06 00:59:53;;;;;;;23.65;17.92;;;;;;;7.25;63.28;101983.53;4992368;28;20108;-85
2021/01/06 01:02:18;;;;;;;21.88;19.63;;;;;;;7.07;64.03;101989.69;5006453;28;20036;-84
2021/01/06 01:04:45;;;;;;;19.77;16.85;;;;;;;6.94;64.19;101981.03;5006414;28;20042;-85
2021/01/06 01:07:11;;;;;;;22.52;16.90;;;;;;;6.60;64.40;101978.78;4992089;28;20060;-83
2021/01/06 01:09:36;;;;;;;21.67;19.75;;;;;;;6.69;64.56;101982.47;5009072;28;20403;-83
2021/01/06 01:12:06;;;;;;;22.55;20.65;;;;;;;6.99;63.83;101986.84;4991616;28;20080;-83
2021/01/06 01:14:32;;;;;;;21.30;18.50;;;;;;;6.99;63.88;101976.88;5023432;28;20484;-83
2021/01/06 01:16:57;;;;;;;17.23;15.18;;;;;;;6.70;64.82;101984.19;4991274;28;20076;-84
2021/01/06 01:19:23;;;;;;;19.63;17.88;;;;;;;6.67;64.33;101982.59;5007415;28;20079;-83
2021/01/06 01:21:48;;;;;;;25.60;23.42;;;;;;;6.50;64.39;101988.72;5008678;28;20061;-83
2021/01/06 01:24:13;;;;;;;26.88;24.30;;;;;;;6.58;64.68;101996.97;5007765;28;20033;-83
2021/01/06 01:26:39;;;;;;;24.25;22.10;;;;;;;6.45;64.61;101984.59;5007556;28;20100;-83
2021/01/06 01:29:05;;;;;;;22.83;20.38;;;;;;;6.68;63.66;101988.88;4991829;28;20472;-83
2021/01/06 01:31:36;;;;;;;18.33;16.63;;;;;;;6.55;63.94;101976.50;5007632;28;20037;-83
2021/01/06 01:34:02;;;;;;;18.52;16.65;;;;;;;6.68;63.75;101975.38;5007610;28;20030;-83
2021/01/06 01:36:28;;;;;;;20.60;18.42;;;;;;;6.90;63.18;101988.56;5007258;28;20042;-82
2021/01/06 01:38:54;;;;;;;17.13;15.32;;;;;;;6.28;64.44;101993.38;4990499;28;20494;-83
2021/01/06 01:41:25;;;;;;;16.40;14.70;;;;;;;6.49;63.79;101995.09;5011291;28;20037;-82
2021/01/06 01:43:51;;;;;;;19.25;17.30;;;;;;;6.19;64.46;101999.63;5008486;28;20026;-82
2021/01/06 01:46:20;;;;;;;24.15;21.63;;;;;;;6.06;64.43;101989.94;5007747;28;20068;-81
2021/01/06 01:48:48;;;;;;;17.13;15.57;;;;;;;5.92;64.72;101996.53;5013119;28;20041;-82
2021/01/06 01:51:32;;;;;;;18.52;16.63;;;;;;;6.35;63.71;101991.84;5006308;28;20038;-82
2021/01/06 01:54:03;;;;;;;20.38;17.33;;;;;;;5.99;64.39;102002.25;5009805;28;20038;-83
2021/01/06 01:56:58;;;;;;;16.98;15.13;;;;;;;6.05;64.07;101990.06;5008745;28;21000;-84
2021/01/06 01:59:27;;;;;;;20.45;18.48;;;;;;;5.97;64.44;101982.66;4999774;28;20045;-81
2021/01/06 02:01:56;;;;;;;17.95;16.25;;;;;;;6.11;64.00;101981.41;5008319;28;20431;-82
2021/01/06 02:04:40;;;;;;;19.42;14.88;;;;;;;6.03;64.28;101989.38;5006825;28;20112;-83
2021/01/06 02:07:18;;;;;;;20.02;17.23;;;;;;;6.08;64.28;101985.25;5006206;28;20033;-83
2021/01/06 02:09:54;;;;;;;22.45;19.08;;;;;;;6.30;63.88;101982.44;5007288;28;20616;-82
2021/01/06 02:12:41;;;;;;;22.73;20.63;;;;;;;6.38;63.42;101975.34;5006074;28;20034;-84
2021/01/06 02:15:36;;;;;;;20.33;17.58;;;;;;;6.43;63.15;101973.06;5004741;28;20034;-84
2021/01/06 02:18:03;;;;;;;20.02;17.85;;;;;;;6.36;63.21;101979.19;4975750;28;20042;-84
2021/01/06 02:20:31;;;;;;;16.67;15.05;;;;;;;6.23;63.24;101974.91;4991347;28;20387;-83
2021/01/06 02:22:57;;;;;;;19.00;17.38;;;;;;;6.28;63.53;101974.47;5006160;28;20038;-81
2021/01/06 02:25:25;;;;;;;20.92;19.23;;;;;;;6.27;63.54;101970.06;5007821;28;20030;-84
2021/01/06 02:27:50;;;;;;;21.52;19.38;;;;;;;6.20;63.57;101971.63;5006379;28;20032;-83
2021/01/06 02:30:17;;;;;;;19.23;17.73;;;;;;;6.18;63.43;101969.06;5007199;28;20042;-82
2021/01/06 02:32:43;;;;;;;16.45;14.73;;;;;;;6.24;63.38;101967.63;5007506;28;20099;-82
2021/01/06 02:35:11;;;;;;;14.15;12.65;;;;;;;5.71;64.84;101964.22;5006275;28;20041;-81
2021/01/06 02:37:37;;;;;;;18.70;16.77;;;;;;;6.16;63.69;101971.03;5005263;28;20081;-82
2021/01/06 02:40:05;;;;;;;18.10;14.07;;;;;;;6.18;63.41;101976.31;4989925;28;20034;-81
2021/01/06 02:42:31;;;;;;;20.73;18.73;;;;;;;5.96;64.15;101959.31;5006499;28;20076;-82
2021/01/06 02:44:57;;;;;;;19.23;16.80;;;;;;;6.39;63.29;101977.03;5007680;28;20400;-82
2021/01/06 02:47:23;;;;;;;24.90;22.70;;;;;;;5.86;64.11;101967.38;5005823;28;20572;-83
2021/01/06 02:49:49;;;;;;;16.77;15.18;;;;;;;6.26;63.70;101955.72;5004999;28;20514;-82
2021/01/06 02:52:22;;;;;;;15.35;13.80;;;;;;;6.24;63.60;101962.25;5012793;28;20029;-82
2021/01/06 02:54:49;;;;;;;18.10;16.70;;;;;;;6.36;63.76;101960.28;5004964;28;20057;-85
2021/01/06 02:57:17;;;;;;;15.90;14.52;;;;;;;6.50;63.01;101961.69;4990271;28;20038;-82
2021/01/06 02:59:46;;;;;;;19.88;14.98;;;;;;;6.38;63.15;101960.97;5006799;28;20168;-81
2021/01/06 03:02:13;;;;;;;17.75;16.10;;;;;;;6.29;63.81;101954.59;5006941;28;20045;-82
2021/01/06 03:04:43;;;;;;;18.70;16.83;;;;;;;6.31;64.17;101965.25;5006934;28;20042;-82
2021/01/06 03:07:12;;;;;;;12.98;11.25;;;;;;;6.76;62.42;101961.97;5008603;28;20041;-82
2021/01/06 03:09:43;;;;;;;16.75;15.02;;;;;;;6.24;63.83;101952.31;5007459;28;20040;-82
2021/01/06 03:12:19;;;;;;;14.25;12.88;;;;;;;6.55;62.97;101954.00;5021030;28;20025;-82
2021/01/06 03:14:44;;;;;;;16.85;15.23;;;;;;;6.40;63.55;101954.44;5007582;28;20507;-83
2021/01/06 03:17:12;;;;;;;19.23;17.52;;;;;;;6.58;62.96;101956.44;5007208;28;20048;-83
2021/01/06 03:19:43;;;;;;;13.30;11.93;;;;;;;6.29;64.08;101954.59;5007605;28;20151;-83
2021/01/06 03:22:11;;;;;;;15.52;12.05;;;;;;;6.34;63.74;101952.31;5002709;28;20033;-83
2021/01/06 03:25:16;;;;;;;15.82;14.43;;;;;;;6.71;62.80;101954.31;5008979;28;20030;-81
2021/01/06 03:27:45;;;;;;;17.05;15.60;;;;;;;6.57;63.12;101950.19;4925227;29;20043;-82
2021/01/06 03:30:19;;;;;;;12.10;8.88;;;;;;;6.49;63.31;101943.78;4932472;29;20059;-82
2021/01/06 03:33:06;;;;;;;16.08;12.25;;;;;;;6.13;63.89;101928.09;4969860;28;20050;-82
2021/01/06 03:35:38;;;;;;;15.57;13.02;;;;;;;6.26;63.84;101934.09;5004536;28;20117;-82
2021/01/06 03:38:19;;;;;;;18.98;16.73;;;;;;;6.63;62.94;101933.38;5003209;28;20034;-83
2021/01/06 03:40:48;;;;;;;18.08;15.98;;;;;;;6.71;62.43;101937.22;5001072;28;20096;-82
2021/01/06 03:43:16;;;;;;;12.40;11.15;;;;;;;6.53;63.05;101940.63;5020547;28;20026;-81
2021/01/06 03:45:47;;;;;;;14.35;10.50;;;;;;;6.65;62.86;101930.53;5005062;28;20396;-82
2021/01/06 03:48:39;;;;;;;12.65;11.52;;;;;;;6.75;62.48;101936.81;5006222;28;20022;-82
2021/01/06 03:51:35;;;;;;;14.73;13.18;;;;;;;6.82;62.29;101924.41;5006800;28;20112;-83
2021/01/06 03:54:15;;;;;;;19.08;13.57;;;;;;;6.45;63.05;101929.69;5006044;28;20034;-83
2021/01/06 03:56:41;;;;;;;13.68;12.23;;;;;;;6.55;63.00;101932.38;5006378;28;20116;-83
2021/01/06 03:59:24;;;;;;;23.88;21.77;;;;;;;6.55;62.81;101922.44;5005089;28;20133;-83
2021/01/06 04:02:20;;;;;;;15.10;13.70;;;;;;;6.68;62.69;101926.72;5011380;28;20523;-83
2021/01/06 04:04:54;;;;;;;16.92;15.23;;;;;;;6.32;63.33;101919.19;5005385;28;20445;-83
2021/01/06 04:07:48;;;;;;;19.83;18.00;;;;;;;6.44;63.31;101912.63;5006426;28;20042;-82
2021/01/06 04:10:17;;;;;;;18.70;16.83;;;;;;;6.58;62.72;101915.88;5004005;28;20049;-82
2021/01/06 04:12:43;;;;;;;22.67;20.77;;;;;;;6.50;63.04;101913.91;5011816;28;20026;-83
2021/01/06 04:15:11;;;;;;;17.00;15.57;;;;;;;6.60;62.79;101917.47;4986958;28;20092;-83
2021/01/06 04:17:39;;;;;;;14.60;12.88;;;;;;;6.61;62.63;101913.78;5004742;28;20038;-83
2021/01/06 04:20:13;;;;;;;21.10;18.55;;;;;;;6.66;62.65;101907.06;5003769;28;20633;-84
2021/01/06 04:22:49;;;;;;;21.88;19.77;;;;;;;6.60;62.90;101908.50;5008407;28;20069;-83
2021/01/06 04:25:23;;;;;;;21.35;18.88;;;;;;;6.79;62.23;101903.06;5006199;28;20049;-83
2021/01/06 04:27:50;;;;;;;19.92;18.17;;;;;;;6.63;62.66;101897.41;5009334;28;20025;-84
2021/01/06 04:30:42;;;;;;;21.33;19.70;;;;;;;6.70;62.33;101901.22;5006469;28;20030;-83
2021/01/06 04:33:21;;;;;;;20.08;16.02;;;;;;;6.56;62.65;101899.81;5006879;28;20496;-84
2021/01/06 04:35:47;;;;;;;18.20;16.45;;;;;;;6.56;62.62;101901.69;5007182;28;20058;-83
2021/01/06 04:38:22;;;;;;;19.13;17.25;;;;;;;6.24;63.58;101895.59;5006253;28;20567;-83
2021/01/06 04:40:50;;;;;;;17.27;15.73;;;;;;;6.41;63.26;101893.13;5006636;28;20594;-84
2021/01/06 04:43:29;;;;;;;16.77;14.13;;;;;;;6.26;63.40;101895.44;5006506;28;20095;-83
2021/01/06 04:46:08;;;;;;;18.63;17.02;;;;;;;6.46;62.70;101871.97;5004326;28;20045;-84
2021/01/06 04:48:50;;;;;;;18.45;17.05;;;;;;;6.51;62.83;101895.84;5004018;28;20746;-83
2021/01/06 04:51:42;;;;;;;18.00;16.30;;;;;;;6.20;63.75;101893.31;5003305;28;20030;-84
2021/01/06 04:54:41;;;;;;;12.98;11.73;;;;;;;6.27;63.72;101892.59;5001342;28;20208;-86
2021/01/06 04:57:46;;;;;;;10.07;9.18;;;;;;;6.40;63.31;101886.91;5005765;28;20072;-83
2021/01/06 05:00:22;;;;;;;12.30;11.13;;;;;;;6.49;63.40;101881.63;5007704;28;20100;-84
2021/01/06 05:02:56;;;;;;;17.00;15.50;;;;;;;6.49;63.16;101887.03;5008003;28;20025;-84
2021/01/06 05:05:50;;;;;;;23.38;21.33;;;;;;;6.28;63.70;101894.28;5012706;28;20060;-84
2021/01/06 05:08:38;;;;;;;16.30;14.68;;;;;;;6.32;63.66;101883.19;5007422;28;20033;-85
2021/01/06 05:11:10;;;;;;;21.60;19.90;;;;;;;6.42;63.59;101887.59;5008215;28;20034;-84
2021/01/06 05:13:45;;;;;;;17.02;15.00;;;;;;;6.18;64.07;101881.78;5006922;28;20029;-85
2021/01/06 05:16:21;;;;;;;16.67;15.07;;;;;;;6.38;63.40;101883.50;5010250;28;20038;-86
2021/01/06 05:18:47;;;;;;;17.40;15.68;;;;;;;6.36;63.08;101874.66;5007070;28;20081;-84
2021/01/06 05:21:17;;;;;;;15.65;14.52;;;;;;;6.25;63.73;101875.66;5008688;28;20041;-84
2021/01/06 05:23:45;;;;;;;13.10;10.68;;;;;;;6.18;63.67;101871.84;5008190;28;20037;-83
2021/01/06 05:26:10;;;;;;;14.93;13.05;;;;;;;6.39;63.37;101879.78;5009329;28;20061;-83
2021/01/06 05:28:36;;;;;;;18.35;16.52;;;;;;;6.30;63.04;101880.63;5008196;28;20068;-83
2021/01/06 05:31:01;;;;;;;15.88;14.50;;;;;;;6.42;62.82;101884.91;5008948;28;20385;-84
2021/01/06 05:33:35;;;;;;;17.30;15.90;;;;;;;6.18;63.44;101881.78;5007724;28;20050;-83
2021/01/06 05:36:01;;;;;;;19.48;17.73;;;;;;;6.02;63.89;101872.38;5006464;28;20508;-83
2021/01/06 05:38:27;;;;;;;14.40;13.07;;;;;;;6.19;62.93;101878.09;4991601;28;20129;-83
2021/01/06 05:40:52;;;;;;;11.68;10.50;;;;;;;6.11;63.50;101881.50;4990044;28;20109;-82
2021/01/06 05:43:18;;;;;;;18.02;15.40;;;;;;;6.23;63.11;101891.16;5008964;28;20034;-84
2021/01/06 05:45:54;;;;;;;13.45;12.05;;;;;;;6.06;63.41;101884.63;5006904;28;20568;-82
2021/01/06 05:48:40;;;;;;;15.88;14.20;;;;;;;6.14;63.31;101883.06;5008757;28;20080;-83
2021/01/06 05:51:24;;;;;;;14.18;12.77;;;;;;;6.36;62.37;101890.03;5007051;28;20095;-86
2021/01/06 05:54:06;;;;;;;12.48;10.85;;;;;;;6.21;62.51;101889.59;5007963;28;20042;-84
2021/01/06 05:56:34;;;;;;;15.55;13.98;;;;;;;6.08;62.78;101890.72;5004422;28;20032;-85
2021/01/06 05:59:17;;;;;;;19.27;17.55;;;;;;;6.20;62.66;101890.59;5011442;28;20045;-85
2021/01/06 06:02:07;;;;;;;15.57;14.15;;;;;;;5.98;63.00;101879.06;5005627;28;20381;-84
2021/01/06 06:04:55;;;;;;;11.63;9.82;;;;;;;6.13;62.71;101893.00;5006276;28;20037;-84
2021/01/06 06:07:35;;;;;;;18.15;16.45;;;;;;;5.97;62.67;101895.41;5008600;28;20117;-84
2021/01/06 06:10:36;;;;;;;13.18;11.90;;;;;;;6.09;62.42;101894.28;5006709;28;20033;-84
2021/01/06 06:13:34;;;;;;;17.50;15.77;;;;;;;6.03;62.49;101890.28;5008080;28;20030;-83
2021/01/06 06:16:30;;;;;;;19.17;17.17;;;;;;;6.02;62.47;101893.13;5008336;28;20034;-83
2021/01/06 06:19:19;;;;;;;27.60;24.92;;;;;;;6.01;62.51;101903.09;5007343;28;20038;-83
2021/01/06 06:22:18;;;;;;;17.15;15.35;;;;;;;6.01;62.38;101892.28;5007194;28;20026;-83
2021/01/06 06:25:02;;;;;;;17.42;14.50;;;;;;;6.02;62.49;101906.63;5009078;28;20045;-83
2021/01/06 06:27:45;;;;;;;16.08;13.40;;;;;;;6.01;62.48;101904.91;5006162;28;20050;-84
2021/01/06 06:30:10;;;;;;;20.35;18.25;;;;;;;5.90;62.69;101911.28;5004588;28;20062;-83
2021/01/06 06:32:53;;;;;;;;;;;;;;;;;;;;;
2021/01/06 06:35:32;;;;;;;16.70;15.07;;;;;;;5.84;62.38;101904.59;5006194;28;20026;-82
2021/01/06 06:38:01;;;;;;;24.95;22.50;;;;;;;5.88;62.42;101910.56;5002177;28;20056;-82
2021/01/06 06:40:46;;;;;;;23.08;21.08;;;;;;;5.77;62.46;101905.28;5007136;28;20038;-82
2021/01/06 06:43:24;;;;;;;16.95;15.38;;;;;;;5.97;62.04;101907.06;5016544;28;20034;-83
2021/01/06 06:46:28;;;;;;;16.30;14.75;;;;;;;6.03;61.85;101914.59;5004667;28;20045;-82
2021/01/06 06:49:17;;;;;;;16.15;14.75;;;;;;;6.08;61.77;101920.41;5008053;28;20373;-83
2021/01/06 06:52:13;;;;;;;19.38;17.65;;;;;;;6.05;61.88;101918.00;5006711;28;20028;-83
2021/01/06 06:54:49;;;;;;;20.00;18.30;;;;;;;6.10;62.24;101920.28;5003068;28;20036;-83
2021/01/06 06:57:35;;;;;;;18.92;17.33;;;;;;;6.13;61.76;101911.06;5007248;28;20092;-82
2021/01/06 07:00:17;;;;;;;16.23;14.73;;;;;;;6.20;61.77;101917.63;5007086;28;20033;-83
2021/01/06 07:02:53;;;;;;;20.48;18.67;;;;;;;6.28;61.73;101909.66;5007297;28;20030;-82
2021/01/06 07:05:35;;;;;;;23.10;20.83;;;;;;;6.30;61.67;101923.00;5005839;28;20026;-82
2021/01/06 07:08:04;;;;;;;;;;;;;;;6.32;61.76;101921.88;5006339;28;20664;-83
2021/01/06 07:10:36;;;;;;;30.27;27.35;;;;;;;6.31;61.71;101913.94;5007459;28;19924;-83
2021/01/06 07:13:06;;;;;;;27.25;25.05;;;;;;;6.30;61.70;101918.44;5006586;28;20028;-83
2021/01/06 07:15:34;;;;;;;22.50;20.48;;;;;;;6.23;61.93;101918.16;5005373;28;20473;-83
2021/01/06 07:18:25;;;;;;;18.52;16.70;;;;;;;6.30;61.70;101926.56;5006587;28;20530;-83
2021/01/06 07:21:06;;;;;;;17.35;15.85;;;;;;;6.28;61.89;101923.16;5006612;28;20122;-83
2021/01/06 07:23:34;;;;;;;18.55;16.88;;;;;;;6.27;62.13;101921.44;5006969;28;20030;-83
2021/01/06 07:26:26;;;;;;;17.00;15.15;;;;;;;6.42;61.61;101928.13;5004811;28;20045;-83
2021/01/06 07:29:00;;;;;;;15.70;14.32;;;;;;;6.36;61.87;101927.84;4997328;28;20034;-84
2021/01/06 07:31:28;;;;;;;16.13;14.52;;;;;;;6.40;61.86;101935.53;5005293;28;20037;-83
2021/01/06 07:34:06;;;;;;;16.85;15.32;;;;;;;6.35;61.82;101927.00;5005724;28;20042;-82
2021/01/06 07:36:53;;;;;;;13.35;11.35;;;;;;;6.16;62.21;101926.97;5005650;28;20050;-82
2021/01/06 07:39:25;;;;;;;17.30;14.80;;;;;;;6.27;62.08;101929.53;5005729;28;20044;-83
2021/01/06 07:41:51;;;;;;;17.90;16.20;;;;;;;6.39;61.98;101936.50;5006694;28;20480;-82
2021/01/06 07:44:19;;;;;;;15.95;14.45;;;;;;;6.35;62.11;101934.22;5005254;28;20061;-83
2021/01/06 07:46:54;;;;;;;17.77;16.02;;;;;;;6.27;62.31;101932.25;5011198;28;20578;-82
2021/01/06 07:49:32;;;;;;;23.27;21.27;;;;;;;6.37;61.99;101927.72;5004609;28;20038;-82
2021/01/06 07:52:05;;;;;;;16.50;14.98;;;;;;;6.31;62.10;101936.38;5005977;28;20025;-83
2021/01/06 07:54:35;;;;;;;15.63;14.02;;;;;;;6.32;62.04;101932.69;5005935;28;20030;-82
2021/01/06 07:57:01;;;;;;;15.55;14.05;;;;;;;6.39;62.11;101927.56;5003433;28;20084;-82
2021/01/06 07:59:48;;;;;;;25.50;23.05;;;;;;;6.44;61.73;101926.16;5004800;28;20037;-83
2021/01/06 08:02:41;;;;;;;16.77;15.25;;;;;;;6.41;61.79;101921.03;5003805;28;20120;-82
2021/01/06 08:05:25;;;;;;;19.65;17.85;;;;;;;6.48;61.63;101931.28;5002665;28;20123;-83
2021/01/06 08:08:08;;;;;;;16.13;12.00;;;;;;;6.37;62.02;101933.09;5004898;28;20026;-83
2021/01/06 08:10:41;;;;;;;13.73;11.50;;;;;;;6.47;61.70;101925.00;5003823;28;20040;-83
2021/01/06 08:13:29;;;;;;;15.30;13.70;;;;;;;6.53;61.76;101932.53;5006615;28;20769;-83
2021/01/06 08:16:21;;;;;;;22.25;19.75;;;;;;;6.60;61.68;101927.44;4999659;28;20045;-83
2021/01/06 08:19:02;;;;;;;16.15;14.68;;;;;;;6.62;61.70;101936.22;5010639;28;20480;-84
2021/01/06 08:21:35;;;;;;;20.17;17.80;;;;;;;6.67;61.75;101933.94;5003994;28;20061;-85
2021/01/06 08:24:51;;;;;;;20.55;18.65;;;;;;;6.62;61.76;101933.53;5005940;28;20053;-85
2021/01/06 08:27:28;;;;;;;19.50;17.48;;;;;;;6.49;62.08;101936.53;4940163;28;20039;-85
2021/01/06 08:30:27;;;;;;;21.20;19.10;;;;;;;6.72;61.83;101941.63;5002998;28;20049;-84
2021/01/06 08:33:08;;;;;;;21.92;20.13;;;;;;;6.72;61.61;101939.78;4999394;28;20038;-84
2021/01/06 08:35:37;;;;;;;18.45;16.63;;;;;;;6.77;62.03;101944.78;5007250;28;20768;-84
2021/01/06 08:38:03;;;;;;;17.92;16.13;;;;;;;6.66;61.80;101923.28;5008275;28;20050;-84
2021/01/06 08:40:35;;;;;;;24.13;19.02;;;;;;;6.76;61.83;101938.50;5008281;28;20030;-83
2021/01/06 08:43:12;;;;;;;23.00;20.73;;;;;;;6.79;61.61;101930.09;5009470;28;20032;-85
2021/01/06 08:45:39;;;;;;;20.42;18.60;;;;;;;6.81;61.68;101944.34;5008547;28;20435;-85
2021/01/06 08:48:24;;;;;;;17.42;15.63;;;;;;;6.90;61.57;101942.59;5009158;28;20038;-84
2021/01/06 08:50:50;;;;;;;21.10;19.10;;;;;;;6.93;61.50;101939.59;5008158;28;20388;-84
2021/01/06 08:53:16;;;;;;;23.65;21.67;;;;;;;7.01;61.57;101938.88;5009024;28;20109;-84
2021/01/06 08:55:57;;;;;;;26.95;24.75;;;;;;;6.86;61.81;101934.91;5009249;28;20056;-84
2021/01/06 08:58:23;;;;;;;29.48;26.45;;;;;;;7.01;61.80;101943.44;5002717;28;20034;-84
2021/01/06 09:00:49;;;;;;;25.48;22.90;;;;;;;7.07;61.84;101935.59;5020264;28;20037;-84
2021/01/06 09:03:35;;;;;;;19.45;17.48;;;;;;;7.13;61.76;101942.28;5006790;28;20714;-84
2021/01/06 09:06:14;;;;;;;20.48;18.38;;;;;;;7.08;61.85;101933.75;5005921;28;20030;-84
2021/01/06 09:08:44;;;;;;;20.05;18.15;;;;;;;7.12;61.70;101930.59;5007709;28;20041;-85
2021/01/06 09:11:32;;;;;;;27.20;24.80;;;;;;;7.17;61.33;101936.44;5005586;28;20045;-85
2021/01/06 09:14:27;;;;;;;26.52;24.13;;;;;;;7.23;61.51;101936.81;5003777;28;20205;-85
2021/01/06 09:16:57;;;;;;;25.15;22.92;;;;;;;7.22;61.27;101935.13;5007804;28;20033;-85
2021/01/06 09:19:34;;;;;;;25.48;22.95;;;;;;;7.13;61.48;101924.19;5008519;28;20034;-84
2021/01/06 09:22:00;;;;;;;19.15;13.85;;;;;;;7.29;61.51;101941.66;5006323;28;20074;-85
2021/01/06 09:24:32;;;;;;;20.17;18.05;;;;;;;7.30;61.24;101940.66;5010623;28;20049;-84
2021/01/06 09:27:22;;;;;;;21.50;19.25;;;;;;;7.27;61.33;101941.78;5005314;28;20511;-84
2021/01/06 09:29:49;;;;;;;19.40;17.20;;;;;;;7.20;61.35;101942.53;5002908;28;20065;-84
2021/01/06 09:32:20;;;;;;;16.88;12.95;;;;;;;7.28;61.39;101939.97;5002175;28;20559;-85
2021/01/06 09:34:53;;;;;;;21.15;19.15;;;;;;;7.23;60.93;101939.53;5001975;28;20121;-84
2021/01/06 09:37:23;;;;;;;16.80;14.38;;;;;;;7.33;61.12;101940.38;4999507;28;20049;-85
2021/01/06 09:39:50;;;;;;;20.83;16.92;;;;;;;7.31;60.78;101934.25;5002361;28;20034;-85
2021/01/06 09:42:18;;;;;;;18.75;16.90;;;;;;;7.44;60.43;101945.56;5000246;28;20029;-85
2021/01/06 09:44:44;;;;;;;22.33;19.95;;;;;;;7.51;60.52;101949.41;5001308;28;20539;-86
2021/01/06 09:47:22;;;;;;;22.30;20.17;;;;;;;7.27;61.01;101932.84;4982932;28;20549;-84
2021/01/06 09:49:54;;;;;;;21.02;19.00;;;;;;;7.63;60.20;101924.84;4999847;28;20124;-85
2021/01/06 09:52:32;;;;;;;20.15;18.10;;;;;;;7.63;59.91;101924.84;5003166;28;20601;-85
2021/01/06 09:54:58;;;;;;;26.15;19.02;;;;;;;7.53;60.11;101923.03;5000564;28;20053;-85
2021/01/06 09:57:29;;;;;;;19.35;17.38;;;;;;;7.70;59.72;101928.66;5000964;28;20465;-85
2021/01/06 09:59:57;;;;;;;17.50;15.18;;;;;;;7.82;59.57;101926.63;5000360;28;20034;-84
2021/01/06 10:02:33;;;;;;;29.42;21.83;;;;;;;7.77;59.38;101910.81;5001990;28;20041;-84
2021/01/06 10:05:17;;;;;;;19.50;17.52;;;;;;;7.88;59.72;101923.28;5000849;28;20038;-85
2021/01/06 10:07:51;;;;;;;21.38;15.35;;;;;;;7.95;59.51;101918.97;5000167;28;20030;-84
2021/01/06 10:10:35;;;;;;;19.60;17.55;;;;;;;7.95;59.75;101908.13;4999597;28;20488;-84
2021/01/06 10:13:25;;;;;;;33.70;25.13;;;;;;;8.03;59.38;101919.06;5000206;28;20042;-85
2021/01/06 10:16:09;;;;;;;20.38;14.63;;;;;;;8.02;59.22;101924.63;4998911;28;20041;-82
2021/01/06 10:18:52;;;;;;;15.93;14.43;;;;;;;8.12;59.11;101917.28;5002332;28;20049;-85
2021/01/06 10:21:29;;;;;;;17.60;15.90;;;;;;;8.25;58.95;101912.34;5000825;28;20030;-84
2021/01/06 10:24:21;;;;;;;20.38;18.45;;;;;;;8.31;58.97;101910.88;5000592;28;20522;-85
2021/01/06 10:27:24;;;;;;;14.32;12.48;;;;;;;8.36;58.97;101905.81;5000491;28;20060;-85
2021/01/06 10:29:52;;;;;;;21.13;18.88;;;;;;;8.20;58.45;101902.94;4997323;28;20060;-83
2021/01/06 10:32:21;;;;;;;16.23;14.77;;;;;;;8.40;58.57;101904.53;4999675;28;20121;-82
2021/01/06 10:35:06;;;;;;;16.45;13.50;;;;;;;8.32;58.45;101893.59;5000599;28;20034;-82
2021/01/06 10:37:32;;;;;;;15.38;13.52;;;;;;;8.28;58.13;101892.22;4999445;28;20041;-81
2021/01/06 10:40:15;;;;;;;12.90;10.13;;;;;;;8.34;57.98;101894.31;4998974;28;20708;-84
2021/01/06 10:42:40;;;;;;;22.98;20.40;;;;;;;8.30;58.24;101886.63;5000571;28;20050;-84
2021/01/06 10:45:13;;;;;;;19.35;17.05;;;;;;;8.54;58.56;101894.13;5000456;28;20045;-82
2021/01/06 10:47:39;;;;;;;19.13;17.30;;;;;;;8.59;58.46;101895.38;5001797;28;20660;-85
2021/01/06 10:50:22;;;;;;;24.42;22.33;;;;;;;8.56;58.74;101887.56;5000597;28;20036;-83
2021/01/06 10:53:16;;;;;;;31.58;28.05;;;;;;;8.51;58.95;101879.06;5000820;28;20042;-87
2021/01/06 10:56:00;;;;;;;24.67;22.45;;;;;;;8.56;58.66;101884.00;5000138;28;20133;-81
2021/01/06 10:58:52;;;;;;;22.17;19.98;;;;;;;8.61;58.41;101884.38;5001018;28;20037;-83
2021/01/06 11:01:36;;;;;;;20.65;17.52;;;;;;;8.59;58.48;101879.13;5005284;28;20049;-90
2021/01/06 11:04:23;;;;;;;21.65;16.83;;;;;;;8.45;58.87;101873.41;5006818;28;20041;-89
2021/01/06 11:07:14;;;;;;;20.23;17.90;;;;;;;8.68;58.63;101863.78;5004424;28;20040;-88
2021/01/06 11:09:58;;;;;;;13.17;11.93;;;;;;;8.82;58.41;101873.19;5002587;28;20492;-86
2021/01/06 11:12:42;;;;;;;58.42;31.58;;;;;;;8.74;58.31;101873.09;5001233;28;20036;-92
2021/01/06 11:15:32;;;;;;;20.20;18.40;;;;;;;8.62;58.21;101874.38;5003930;28;20037;-88
2021/01/06 11:18:21;;;;;;;14.20;12.98;;;;;;;8.78;58.37;101861.78;5001722;28;20033;-87
2021/01/06 11:21:17;;;;;;;13.80;11.27;;;;;;;8.67;58.32;101855.78;5001783;28;20034;-90
2021/01/06 11:23:55;;;;;;;14.52;13.07;;;;;;;8.58;57.74;101844.03;5002058;28;20029;-90
2021/01/06 11:26:20;;;;;;;12.38;11.10;;;;;;;8.66;57.92;101849.50;5000521;28;20077;-90
2021/01/06 11:29:11;;;;;;;17.88;16.00;;;;;;;8.72;57.99;101845.31;5001774;28;20036;-89
2021/01/06 11:32:04;;;;;;;14.27;11.70;;;;;;;8.67;57.83;101844.94;5000441;28;20503;-81
2021/01/06 11:34:37;;;;;;;12.60;8.18;;;;;;;8.76;57.77;101844.81;4999616;28;20038;-83
2021/01/06 11:37:23;;;;;;;13.27;8.25;;;;;;;8.59;57.88;101821.34;4998538;28;20044;-83
2021/01/06 11:39:49;;;;;;;9.40;8.38;;;;;;;8.58;57.60;101830.47;4999511;28;20025;-83
2021/01/06 11:42:20;;;;;;;13.23;11.07;;;;;;;8.70;57.73;101826.47;5000271;28;20119;-84
2021/01/06 11:45:09;;;;;;;13.00;8.52;;;;;;;8.63;57.93;101828.13;4998622;28;20029;-85
2021/01/06 11:47:44;;;;;;;9.20;7.85;;;;;;;8.74;57.75;101827.88;4972177;28;20750;-85
2021/01/06 11:50:15;;;;;;;14.70;9.05;;;;;;;8.86;57.96;101827.59;4998385;28;20037;-85
2021/01/06 11:52:43;;;;;;;14.25;12.77;;;;;;;8.71;57.13;101822.78;4999137;28;20514;-83
2021/01/06 11:55:34;;;;;;;10.90;8.02;;;;;;;8.89;56.91;101817.25;4999934;28;20038;-83
2021/01/06 11:58:25;;;;;;;12.07;9.68;;;;;;;8.89;57.18;101814.56;4998277;28;20504;-84